Terminal Aerodrome Forecast
Issued by NWS

Home | Current Version | Previous Version | Text Only | Print | Product List | Glossary On
Versions: 1 2 3 4 5 6 7 8 9 10 11 12 13 14 15 16 17 18 19 20 21 22 23 24 25 26 27 28 29 30 31
000
FTUS43 KDLH 010700 AAA
TAFBRD
TAF AMD
KBRD 010709Z 0107/0206 30005KT P6SM VCSH BKN045 OVC100
      TEMPO 0107/0108 5SM TSRA BR SCT015 OVC025CB
     FM010800 29004KT 6SM BR SCT007 SCT015 BKN100
      TEMPO 0108/0112 4SM BR SCT007 OVC015
     FM011200 30006KT 4SM BR OVC007
     FM011500 30010KT P6SM OVC015
     FM011800 30013KT P6SM BKN035
     FM020100 29004KT P6SM FEW100=

USA.gov is the U.S. government's official web portal to all federal, state and local government web resources and services.